EETN/TLL METAR and TAF weather

Enter ICAO airport designator
Station Type Date Time Source
EETN METAR 2018/10/21 03:20 UTC NOAA

EETN 210320Z 18003KT 140V240 0450 R26/1300U FG VV001 02/01 Q1023


Station Type Date Time Source
EETN Decoded METAR 2018/10/21 03:20 UTC NOAA

Tallinn, Estonia (EETN) 59-24N 024-49E 34M
Oct 20, 2018 - 11:20 PM EDT / 2018.10.21 0320 UTC
Wind: from the S (180 degrees) at 3 MPH (3 KT) (direction variable):0
Visibility: less than 1 mile:0
Sky conditions: obscured
Weather: fog
Temperature: 35 F (2 C)
Dew Point: 33 F (1 C)
Relative Humidity: 93%
Pressure (altimeter): 30.21 in. Hg (1023 hPa)
ob: EETN 210320Z 18003KT 140V240 0450 R26/1300U FG VV001 02/01 Q1023
cycle: 3

Station Type Date Time Source
EETN TAF 2018/10/20 18:12 UTC NOAA

TAF TAF EETN 201710Z 2018/2118 VRB02KT 6000 SCT006
TEMPO 2018/2024 0800 BCFG BKN003
TEMPO 2102/2108 0350 FG VV001
BECMG 2108/2110 21012KT 9999 SCT025


Example: see airport list